Time;durP1;ratioP1;P1;durP2;ratioP2;P2;SDS_P1;SDS_P2;PMS_P1;PMS_P2;Temp;Humidity;BMP_temperature;BMP_pressure;BME280_temperature;BME280_humidity;BME280_pressure;Samples;Min_cycle;Max_cycle;Signal;HPM_P1;HPM_P2
2021/11/21 00:02:57;;;;;;;11.10;6.95;;;;;;;4.56;100.00;96245.31;5236554;56;20131;-74
2021/11/21 00:07:59;;;;;;;11.43;7.28;;;;;;;4.63;100.00;96223.28;5234846;56;20140;-75
2021/11/21 00:13:03;;;;;;;10.55;6.40;;;;;;;4.47;100.00;96220.50;5234680;56;20096;-74
2021/11/21 00:18:05;;;;;;;11.30;7.38;;;;;;;4.67;99.82;96213.00;5237000;56;20238;-74
2021/11/21 00:23:08;;;;;;;13.70;7.68;;;;;;;4.68;99.13;96209.09;5237332;56;20111;-74
2021/11/21 00:28:10;;;;;;;18.33;8.70;;;;;;;4.68;99.12;96198.88;5237906;56;20118;-74
2021/11/21 00:33:13;;;;;;;11.75;7.60;;;;;;;4.47;99.69;96193.16;5240934;56;20218;-74
2021/11/21 00:38:15;;;;;;;14.20;8.35;;;;;;;4.11;100.00;96184.97;5239380;56;20576;-73
2021/11/21 00:43:22;;;;;;;11.35;7.07;;;;;;;4.39;100.00;96178.09;5239086;56;20126;-74
2021/11/21 00:48:25;;;;;;;10.15;6.40;;;;;;;4.50;99.64;96165.69;5240917;56;20595;-74
2021/11/21 00:53:28;;;;;;;12.45;5.68;;;;;;;4.58;99.44;96160.84;5239187;56;20126;-74
2021/11/21 00:58:32;;;;;;;9.85;6.03;;;;;;;4.58;99.39;96152.63;5234164;56;20105;-74
2021/11/21 01:03:35;;;;;;;9.25;5.57;;;;;;;4.63;99.68;96143.91;5234296;56;20219;-74
2021/11/21 01:08:37;;;;;;;11.82;7.25;;;;;;;4.53;100.00;96136.72;5234267;56;20136;-74
2021/11/21 01:13:40;;;;;;;11.95;6.85;;;;;;;4.62;100.00;96123.97;5234183;56;20667;-73
2021/11/21 01:18:42;;;;;;;13.05;6.57;;;;;;;4.72;99.99;96127.66;5235040;56;20135;-73
2021/11/21 01:23:45;;;;;;;14.32;7.72;;;;;;;4.70;100.00;96119.13;5233578;56;20140;-74
2021/11/21 01:28:48;;;;;;;12.00;7.50;;;;;;;4.74;100.00;96114.31;5234951;56;20105;-74
2021/11/21 01:33:50;;;;;;;11.27;7.30;;;;;;;4.42;100.00;96111.59;5233085;56;20175;-74
2021/11/21 01:38:53;;;;;;;8.52;5.97;;;;;;;4.52;100.00;96110.56;5234399;56;20131;-74
2021/11/21 01:43:55;;;;;;;10.23;5.88;;;;;;;4.35;100.00;96102.34;5234594;56;20122;-73
2021/11/21 01:48:58;;;;;;;8.27;5.38;;;;;;;4.33;100.00;96096.53;5232474;56;20122;-74
2021/11/21 01:54:01;;;;;;;15.18;5.50;;;;;;;4.20;100.00;96084.75;5234391;56;20109;-74
2021/11/21 01:59:03;;;;;;;7.00;5.03;;;;;;;4.22;100.00;96079.63;5234678;56;20232;-74
2021/11/21 02:04:06;;;;;;;8.27;5.53;;;;;;;4.15;100.00;96074.31;5235385;56;20122;-74
2021/11/21 02:09:08;;;;;;;6.32;4.13;;;;;;;3.93;100.00;96073.28;5233891;56;20164;-73
2021/11/21 02:14:11;;;;;;;5.97;4.18;;;;;;;3.93;100.00;96070.53;5233685;56;20088;-74
2021/11/21 02:19:17;;;;;;;5.63;3.83;;;;;;;4.00;100.00;96055.94;5231794;56;20322;-74
2021/11/21 02:24:19;;;;;;;6.63;4.28;;;;;;;3.96;100.00;96042.34;5232076;56;20122;-74
2021/11/21 02:29:22;;;;;;;5.45;3.78;;;;;;;3.97;100.00;96051.31;5231596;56;20697;-74
2021/11/21 02:34:24;;;;;;;6.03;3.47;;;;;;;3.92;100.00;96043.59;5232563;56;20131;-74
2021/11/21 02:39:27;;;;;;;6.00;4.03;;;;;;;3.96;100.00;96038.81;5234448;56;20140;-74
2021/11/21 02:44:29;;;;;;;6.78;3.45;;;;;;;4.02;100.00;96031.66;5231731;56;20113;-73
2021/11/21 02:49:32;;;;;;;5.22;3.65;;;;;;;4.00;99.87;96018.41;5231497;56;20149;-74
2021/11/21 02:54:34;;;;;;;4.43;3.33;;;;;;;3.91;100.00;96003.81;5229892;56;20123;-74
2021/11/21 02:59:37;;;;;;;5.63;3.60;;;;;;;3.89;99.71;96003.47;5230083;56;20122;-74
2021/11/21 03:04:39;;;;;;;5.18;3.42;;;;;;;3.79;100.00;95979.88;5230118;56;20220;-73
2021/11/21 03:09:42;;;;;;;5.05;4.13;;;;;;;3.79;100.00;95968.97;5232866;56;20131;-74
2021/11/21 03:14:45;;;;;;;6.82;3.08;;;;;;;3.69;100.00;95965.28;5235277;56;20109;-73
2021/11/21 03:19:48;;;;;;;4.22;3.83;;;;;;;3.64;100.00;95963.81;5248730;56;20131;-73
2021/11/21 03:24:50;;;;;;;3.47;2.80;;;;;;;3.68;100.00;95960.25;5250333;56;20127;-74
2021/11/21 03:29:52;;;;;;;4.03;3.63;;;;;;;3.38;100.00;95964.03;5241963;56;20127;-74
2021/11/21 03:34:55;;;;;;;4.47;3.33;;;;;;;3.41;100.00;95944.88;5240416;56;20285;-73
2021/11/21 03:39:57;;;;;;;2.45;2.17;;;;;;;3.41;100.00;95944.88;5242036;56;20105;-74
2021/11/21 03:45:00;;;;;;;3.90;2.72;;;;;;;3.46;100.00;95952.53;5237275;56;20132;-73
2021/11/21 03:50:04;;;;;;;2.70;2.47;;;;;;;3.34;100.00;95936.06;5236579;56;20118;-74
2021/11/21 03:55:09;;;;;;;3.30;3.03;;;;;;;3.54;99.58;95942.22;5237582;56;20109;-74
2021/11/21 04:00:14;;;;;;;5.28;3.33;;;;;;;3.48;99.31;95933.00;5238708;56;20092;-73
2021/11/21 04:05:18;;;;;;;3.80;3.15;;;;;;;3.50;99.47;95927.88;5240367;56;20114;-74
2021/11/21 04:10:21;;;;;;;4.50;3.25;;;;;;;3.40;100.00;95915.22;5238799;56;20157;-73
2021/11/21 04:15:23;;;;;;;3.85;2.72;;;;;;;3.45;100.00;95925.66;5238405;56;20131;-74
2021/11/21 04:20:25;;;;;;;2.67;2.47;;;;;;;3.39;99.88;95930.09;5235679;56;20219;-74
2021/11/21 04:25:28;;;;;;;4.47;3.03;;;;;;;3.49;99.56;95937.25;5238251;56;20114;-74
2021/11/21 04:30:30;;;;;;;4.38;2.95;;;;;;;3.43;100.00;95914.38;5236724;56;20122;-74
2021/11/21 04:35:33;;;;;;;3.13;2.65;;;;;;;3.67;99.59;95904.06;5239477;56;20092;-74
2021/11/21 04:40:35;;;;;;;3.05;2.72;;;;;;;3.64;99.30;95902.97;5237024;56;20104;-73
2021/11/21 04:45:38;;;;;;;3.72;3.03;;;;;;;3.04;100.00;95906.28;5237097;56;20113;-74
2021/11/21 04:50:41;;;;;;;5.70;3.72;;;;;;;2.95;100.00;95892.47;5232480;56;20158;-73
2021/11/21 04:55:43;;;;;;;5.47;3.03;;;;;;;3.04;100.00;95898.88;5234466;56;20662;-74
2021/11/21 05:00:46;;;;;;;2.88;2.55;;;;;;;2.40;100.00;95898.69;5237748;56;20109;-74
2021/11/21 05:05:49;;;;;;;2.00;1.90;;;;;;;2.41;100.00;95890.06;5233923;56;20554;-74
2021/11/21 05:10:51;;;;;;;3.15;2.40;;;;;;;2.48;100.00;95889.94;5234217;56;20126;-74
2021/11/21 05:15:54;;;;;;;1.92;1.73;;;;;;;2.65;100.00;95879.84;5236263;56;20123;-74
2021/11/21 05:20:56;;;;;;;2.20;2.00;;;;;;;2.77;100.00;95869.06;5235896;56;20140;-74
2021/11/21 05:25:58;;;;;;;2.50;2.30;;;;;;;2.57;100.00;95878.44;5227389;56;20192;-74
2021/11/21 05:31:01;;;;;;;2.22;2.08;;;;;;;2.28;100.00;95869.31;5226579;56;20127;-74
2021/11/21 05:36:03;;;;;;;4.20;3.17;;;;;;;2.20;100.00;95865.94;5233017;56;20135;-74
2021/11/21 05:41:06;;;;;;;1.92;1.83;;;;;;;2.36;100.00;95867.97;5234277;56;20608;-74
2021/11/21 05:46:08;;;;;;;2.65;2.10;;;;;;;2.09;100.00;95865.38;5228024;56;20139;-73
2021/11/21 05:51:11;;;;;;;2.25;1.98;;;;;;;1.92;100.00;95845.44;5235734;56;20127;-73
2021/11/21 05:56:14;;;;;;;2.53;2.33;;;;;;;1.89;100.00;95857.19;5233856;56;20140;-74
2021/11/21 06:01:18;;;;;;;2.38;2.10;;;;;;;2.01;100.00;95850.34;5233697;56;20122;-74
2021/11/21 06:06:21;;;;;;;1.85;1.75;;;;;;;2.05;100.00;95843.66;5233471;56;20131;-73
2021/11/21 06:11:24;;;;;;;2.05;1.90;;;;;;;2.22;100.00;95830.09;5233440;56;20702;-74
2021/11/21 06:16:26;;;;;;;1.48;1.20;;;;;;;2.46;100.00;95832.31;5232457;56;20666;-73
2021/11/21 06:21:29;;;;;;;1.80;1.70;;;;;;;2.19;100.00;95834.44;5232345;56;20130;-72
2021/11/21 06:26:31;;;;;;;2.17;1.83;;;;;;;2.18;100.00;95832.88;5236161;56;20122;-74
2021/11/21 06:31:34;;;;;;;1.52;1.23;;;;;;;2.23;100.00;95826.94;5235674;56;20126;-74
2021/11/21 06:36:36;;;;;;;3.10;2.25;;;;;;;2.10;100.00;95831.50;5231117;45;20131;-74
2021/11/21 06:41:39;;;;;;;1.83;1.73;;;;;;;2.29;100.00;95821.75;5220130;56;20135;-73
2021/11/21 06:46:42;;;;;;;1.55;1.45;;;;;;;2.36;100.00;95816.94;5222605;56;20251;-73
2021/11/21 06:51:44;;;;;;;1.88;1.77;;;;;;;2.43;100.00;95816.03;5214358;56;20750;-73
2021/11/21 06:56:47;;;;;;;2.00;1.80;;;;;;;2.28;99.89;95801.94;5223067;56;20127;-74
2021/11/21 07:01:49;;;;;;;2.65;2.22;;;;;;;2.13;100.00;95817.78;5223072;56;20710;-74
2021/11/21 07:06:52;;;;;;;2.72;2.08;;;;;;;2.38;100.00;95822.75;5222780;56;20209;-73
2021/11/21 07:11:54;;;;;;;2.75;2.35;;;;;;;2.41;100.00;95829.31;5222913;56;20135;-74
2021/11/21 07:16:57;;;;;;;4.53;2.70;;;;;;;2.46;100.00;95828.81;5222635;56;20127;-73
2021/11/21 07:21:59;;;;;;;2.20;2.10;;;;;;;1.83;100.00;95834.31;5222866;56;20591;-74
2021/11/21 07:27:02;;;;;;;1.13;1.10;;;;;;;2.30;99.23;95828.75;5223010;56;20109;-73
2021/11/21 07:32:06;;;;;;;1.63;1.52;;;;;;;2.38;98.39;95824.69;5222700;56;20127;-74
2021/11/21 07:37:08;;;;;;;2.38;2.17;;;;;;;2.10;97.03;95823.31;5222300;56;20131;-74
2021/11/21 07:42:11;;;;;;;5.20;3.95;;;;;;;1.97;100.00;95833.28;5222948;56;20118;-74
2021/11/21 07:47:13;;;;;;;3.70;3.40;;;;;;;2.23;98.23;95826.19;5222366;56;20144;-74
2021/11/21 07:52:16;;;;;;;1.75;1.65;;;;;;;2.40;97.83;95819.63;5222345;56;20139;-74
2021/11/21 07:57:19;;;;;;;1.48;1.38;;;;;;;2.55;96.25;95818.88;5219343;56;20122;-74
2021/11/21 08:02:21;;;;;;;1.80;1.70;;;;;;;2.63;94.87;95814.03;5213840;56;20131;-75
2021/11/21 08:07:24;;;;;;;1.85;1.65;;;;;;;3.27;93.49;95807.88;5219356;56;20736;-73
2021/11/21 08:12:26;;;;;;;1.98;1.88;;;;;;;3.37;91.88;95812.34;5222130;56;20144;-73
2021/11/21 08:17:29;;;;;;;3.33;2.78;;;;;;;2.54;94.85;95806.44;5213106;56;20131;-74
2021/11/21 08:22:31;;;;;;;2.38;2.17;;;;;;;3.53;93.24;95812.28;5221960;56;20693;-73
2021/11/21 08:27:35;;;;;;;2.63;2.40;;;;;;;3.76;90.38;95801.16;5221864;56;20136;-73
2021/11/21 08:32:38;;;;;;;2.58;2.38;;;;;;;3.96;90.72;95815.47;5221822;56;20261;-73
2021/11/21 08:37:40;;;;;;;2.83;2.53;;;;;;;3.96;89.98;95801.03;5221714;56;20827;-73
2021/11/21 08:42:43;;;;;;;2.92;2.63;;;;;;;4.15;88.11;95797.38;5221716;56;20732;-74
2021/11/21 08:47:45;;;;;;;2.67;2.47;;;;;;;4.35;87.48;95792.50;5221331;56;20136;-73
2021/11/21 08:52:48;;;;;;;2.88;2.58;;;;;;;4.14;87.49;95787.63;5220531;56;20701;-72
2021/11/21 08:57:50;;;;;;;2.60;2.40;;;;;;;4.55;87.24;95784.13;5219763;56;20100;-72
2021/11/21 09:02:53;;;;;;;3.17;2.58;;;;;;;4.74;87.39;95783.94;5220570;56;20113;-73
2021/11/21 09:07:55;;;;;;;2.90;2.60;;;;;;;5.03;84.58;95781.09;5216689;56;20118;-73
2021/11/21 09:12:58;;;;;;;3.25;2.95;;;;;;;4.89;85.64;95776.03;5218839;56;20135;-74
2021/11/21 09:18:00;;;;;;;3.78;3.20;;;;;;;4.65;86.95;95775.63;5220681;56;20113;-74
2021/11/21 09:23:04;;;;;;;3.03;2.58;;;;;;;4.62;88.21;95772.97;5217162;56;20215;-73
2021/11/21 09:28:06;;;;;;;3.80;3.45;;;;;;;4.43;87.99;95776.69;5220897;56;20122;-74
2021/11/21 09:33:10;;;;;;;3.42;3.13;;;;;;;4.24;89.29;95775.66;5220763;56;20139;-74
2021/11/21 09:38:13;;;;;;;4.57;3.88;;;;;;;4.47;87.28;95772.63;5220286;56;20109;-74
2021/11/21 09:43:15;;;;;;;4.60;3.83;;;;;;;4.62;85.95;95772.97;5221123;56;20594;-74
2021/11/21 09:48:18;;;;;;;4.40;3.40;;;;;;;4.62;87.89;95760.06;5221039;56;20136;-74
2021/11/21 09:53:22;;;;;;;1.83;1.73;;;;;;;5.15;85.19;95757.63;5219812;56;20153;-74
2021/11/21 09:58:25;;;;;;;4.50;3.97;;;;;;;5.52;83.08;95762.25;5214188;56;20754;-74
2021/11/21 10:03:27;;;;;;;3.35;3.05;;;;;;;5.29;82.63;95757.94;5219195;56;20118;-74
2021/11/21 10:08:30;;;;;;;6.20;4.78;;;;;;;5.64;82.52;95743.06;5217726;56;20653;-74
2021/11/21 10:13:42;;;;;;;5.35;4.55;;;;;;;5.39;83.83;95737.66;5215525;56;20131;-78
2021/11/21 10:18:48;;;;;;;3.65;3.35;;;;;;;5.76;81.68;95745.00;5213582;56;20136;-74
2021/11/21 10:24:12;;;;;;;5.93;4.00;;;;;;;5.73;81.50;95748.63;5215848;56;20114;-74
2021/11/21 10:29:28;;;;;;;4.90;4.45;;;;;;;5.48;83.52;95735.00;5211778;56;20127;-73
2021/11/21 10:34:30;;;;;;;5.20;4.70;;;;;;;5.73;81.66;95723.94;5218142;56;20122;-73
2021/11/21 10:39:33;;;;;;;6.20;4.65;;;;;;;5.84;83.06;95720.84;5217613;56;20113;-72
2021/11/21 10:44:35;;;;;;;11.18;5.07;;;;;;;6.15;80.57;95716.19;5217317;56;20118;-72
2021/11/21 10:49:39;;;;;;;7.22;5.13;;;;;;;5.63;83.94;95708.63;5215396;56;20130;-73
2021/11/21 10:54:57;;;;;;;5.57;4.53;;;;;;;5.65;86.13;95711.69;5215578;56;20114;-73
2021/11/21 11:00:04;;;;;;;7.30;5.95;;;;;;;6.04;82.89;95704.09;5213608;56;20213;-73
2021/11/21 11:05:08;;;;;;;5.50;4.57;;;;;;;5.65;85.95;95714.41;5218032;56;20680;-73
2021/11/21 11:10:14;;;;;;;5.75;4.28;;;;;;;5.86;85.34;95703.97;5218570;56;20131;-73
2021/11/21 11:15:17;;;;;;;9.68;7.13;;;;;;;6.77;81.82;95694.22;5217747;56;20136;-72
2021/11/21 11:20:21;;;;;;;5.70;4.55;;;;;;;6.24;82.51;95686.06;5214645;56;20123;-72
2021/11/21 11:25:32;;;;;;;7.63;5.97;;;;;;;6.38;82.51;95687.50;5218850;56;20141;-72
2021/11/21 11:30:36;;;;;;;8.13;5.82;;;;;;;5.74;86.52;95689.81;5220928;56;20122;-71
2021/11/21 11:35:59;;;;;;;13.10;7.95;;;;;;;5.46;87.66;95687.31;5222503;56;20127;-72
2021/11/21 11:41:08;;;;;;;8.32;6.25;;;;;;;5.37;89.38;95687.25;5220297;56;20652;-73
2021/11/21 11:46:13;;;;;;;8.52;5.68;;;;;;;4.91;92.70;95686.81;5220652;56;20132;-70
2021/11/21 11:51:27;;;;;;;16.98;11.50;;;;;;;4.79;92.94;95686.84;5220053;56;20474;-73
2021/11/21 11:56:47;;;;;;;11.40;7.25;;;;;;;4.82;93.67;95688.69;5217237;56;20118;-73
2021/11/21 12:01:51;;;;;;;11.30;6.60;;;;;;;4.76;94.94;95674.03;5221443;56;20140;-73
2021/11/21 12:06:55;;;;;;;9.80;6.45;;;;;;;4.77;95.10;95678.31;5220869;56;20218;-72
2021/11/21 12:12:02;;;;;;;10.50;6.75;;;;;;;4.78;95.22;95677.09;5219590;56;20118;-74
2021/11/21 12:17:15;;;;;;;11.48;6.82;;;;;;;4.80;94.67;95671.94;5221084;56;20162;-73
2021/11/21 12:22:32;;;;;;;8.30;6.18;;;;;;;4.79;93.62;95671.19;5219135;56;20122;-73
2021/11/21 12:27:43;;;;;;;13.40;7.53;;;;;;;4.80;95.09;95669.97;5222483;56;20131;-73
2021/11/21 12:32:46;;;;;;;14.75;8.07;;;;;;;4.72;94.29;95663.22;5222367;56;20145;-73
2021/11/21 12:37:51;;;;;;;13.15;7.93;;;;;;;4.64;95.05;95656.41;5220626;56;20109;-74
2021/11/21 12:42:57;;;;;;;12.25;7.75;;;;;;;4.91;93.71;95661.41;5210801;56;20689;-73
2021/11/21 12:48:01;;;;;;;7.72;5.38;;;;;;;4.91;93.70;95661.41;5496804;46;20123;-73
2021/11/21 12:53:08;;;;;;;8.02;5.38;;;;;;;4.82;93.96;95658.56;5197738;57;20123;-73
2021/11/21 12:58:18;;;;;;;8.18;5.70;;;;;;;4.88;94.51;95652.13;5180855;57;20124;-73
2021/11/21 13:03:22;;;;;;;9.05;6.43;;;;;;;4.89;93.90;95652.88;5180989;57;20119;-73
2021/11/21 13:08:31;;;;;;;12.40;6.78;;;;;;;4.70;94.71;95651.94;5180524;57;20168;-73
2021/11/21 13:14:01;;;;;;;17.75;8.82;;;;;;;5.03;93.86;95644.19;5180633;57;20125;-73
2021/11/21 13:19:04;;;;;;;13.07;7.78;;;;;;;4.86;94.09;95634.59;5180063;57;20271;-73
2021/11/21 13:36:02;;;;;;;10.75;6.50;;;;;;;5.27;91.12;95623.41;5212008;56;20131;-72
2021/11/21 13:41:10;;;;;;;9.70;6.78;;;;;;;4.99;91.75;95618.91;5213771;56;20224;-73
2021/11/21 13:46:17;;;;;;;11.07;6.90;;;;;;;4.88;92.62;95618.50;5192436;57;20119;-73
2021/11/21 13:51:33;;;;;;;7.63;5.32;;;;;;;5.20;91.35;95623.63;5193627;56;20817;-73
2021/11/21 14:02:12;;;;;;;9.48;6.50;;;;;;;4.86;91.47;95618.19;1573875;52;20592;-72
2021/11/21 14:12:46;;;;;;;9.57;6.13;;;;;;;4.90;91.79;95624.31;1479429;52;20142;-73
2021/11/21 14:17:56;;;;;;;8.70;5.82;;;;;;;5.04;91.13;95621.09;5176499;57;20229;-74
2021/11/21 14:23:16;;;;;;;9.15;5.65;;;;;;;5.10;90.93;95616.56;5177717;57;20704;-73
2021/11/21 14:28:25;;;;;;;11.05;6.28;;;;;;;5.06;90.47;95624.16;5175049;57;20135;-73
2021/11/21 14:33:30;;;;;;;10.50;6.00;;;;;;;4.92;91.17;95628.13;5171674;57;20165;-72
2021/11/21 14:38:33;;;;;;;11.10;5.80;;;;;;;4.90;90.88;95627.03;5172186;57;20146;-73
2021/11/21 14:43:43;;;;;;;12.75;7.30;;;;;;;4.78;91.41;95622.34;5168869;57;20141;-73
2021/11/21 14:48:51;;;;;;;18.02;8.35;;;;;;;4.70;93.93;95632.00;5183295;57;20120;-74
2021/11/21 14:59:44;;;;;;;15.48;8.65;;;;;;;4.47;95.70;95626.88;5193674;46;20141;-71
2021/11/21 15:10:24;;;;;;;15.73;8.07;;;;;;;4.47;94.98;95632.34;1643294;52;20138;-74
2021/11/21 15:32:38;;;;;;;13.77;7.82;;;;;;;4.23;96.55;95648.31;5669998;45;20358;-75
2021/11/21 15:37:42;;;;;;;13.02;6.45;;;;;;;4.19;97.24;95642.97;5216233;56;20157;-75
2021/11/21 15:42:44;;;;;;;17.77;9.20;;;;;;;4.09;97.67;95654.25;5215482;56;20118;-74
2021/11/21 15:47:49;;;;;;;20.75;11.02;;;;;;;3.90;98.97;95657.91;5203169;56;20705;-74
2021/11/21 15:52:53;;;;;;;17.00;8.73;;;;;;;4.11;98.08;95665.50;5211671;56;20130;-75
2021/11/21 15:57:56;;;;;;;17.17;8.65;;;;;;;4.14;98.50;95662.66;5221863;56;20593;-72
2021/11/21 16:02:58;;;;;;;11.52;6.95;;;;;;;3.90;99.16;95663.38;5219308;56;20127;-72
2021/11/21 16:08:06;;;;;;;15.05;8.38;;;;;;;3.86;97.94;95668.97;5221268;56;20127;-73
2021/11/21 16:13:08;;;;;;;15.25;8.50;;;;;;;3.71;98.72;95667.06;5220468;56;20145;-72
2021/11/21 16:18:11;;;;;;;9.52;6.28;;;;;;;3.78;98.60;95681.28;5220886;56;20670;-73
2021/11/21 16:23:13;;;;;;;13.73;7.43;;;;;;;3.64;98.47;95678.97;5216845;56;20131;-73
2021/11/21 16:28:16;;;;;;;20.95;11.65;;;;;;;3.53;98.37;95686.66;5219395;56;20140;-73
2021/11/21 16:33:20;;;;;;;13.15;7.90;;;;;;;3.50;99.75;95688.31;5214710;56;20171;-73
2021/11/21 16:38:22;;;;;;;11.32;6.10;;;;;;;3.50;99.43;95682.06;5217292;56;20157;-72
2021/11/21 16:43:25;;;;;;;12.98;5.50;;;;;;;3.41;100.00;95701.03;5214397;56;20122;-72
2021/11/21 16:48:27;;;;;;;11.95;6.60;;;;;;;3.32;99.87;95709.09;5212875;56;20133;-72
2021/11/21 16:53:30;;;;;;;4.38;3.03;;;;;;;3.11;99.44;95706.88;5211752;56;20145;-72
2021/11/21 16:58:32;;;;;;;13.00;6.75;;;;;;;3.33;98.04;95716.06;5206936;56;20122;-72
2021/11/21 17:03:35;;;;;;;7.72;5.97;;;;;;;3.35;98.73;95719.13;5213861;56;20118;-72
2021/11/21 17:08:38;;;;;;;7.82;4.93;;;;;;;3.37;98.00;95711.31;5207603;56;20145;-72
2021/11/21 17:13:40;;;;;;;11.20;7.07;;;;;;;3.45;97.64;95720.81;5215581;56;20148;-72
2021/11/21 17:18:43;;;;;;;7.15;4.30;;;;;;;3.43;97.55;95723.22;5220644;56;20134;-72
2021/11/21 17:23:46;;;;;;;6.45;4.53;;;;;;;3.52;95.49;95737.03;5220317;56;20122;-72
2021/11/21 17:28:49;;;;;;;9.85;5.25;;;;;;;3.47;95.47;95740.28;5220482;56;20135;-72
2021/11/21 17:33:51;;;;;;;8.45;4.43;;;;;;;3.39;95.89;95744.41;5211732;56;20697;-72
2021/11/21 17:38:54;;;;;;;6.53;4.32;;;;;;;3.38;96.78;95748.31;5216542;56;20667;-72
2021/11/21 17:43:57;;;;;;;7.03;3.83;;;;;;;3.55;96.04;95747.09;5212495;56;20130;-72
2021/11/21 17:49:00;;;;;;;4.65;3.25;;;;;;;3.37;96.63;95755.72;5200319;56;20131;-72
2021/11/21 17:54:03;;;;;;;6.82;4.70;;;;;;;3.68;95.16;95749.88;5209072;56;20585;-72
2021/11/21 17:59:05;;;;;;;4.55;3.13;;;;;;;3.76;94.95;95757.44;5208759;56;20604;-73
2021/11/21 18:04:07;;;;;;;5.53;3.20;;;;;;;3.81;94.31;95756.16;5218574;56;20209;-72
2021/11/21 18:09:10;;;;;;;2.83;2.28;;;;;;;3.97;93.65;95753.38;5218340;56;20118;-73
2021/11/21 18:14:12;;;;;;;6.47;4.13;;;;;;;3.77;94.99;95766.41;5216002;56;20114;-72
2021/11/21 18:19:15;;;;;;;5.38;3.58;;;;;;;3.75;94.46;95772.31;5208428;56;20226;-72
2021/11/21 18:24:18;;;;;;;5.45;3.08;;;;;;;3.69;95.23;95762.34;5209663;56;20141;-72
2021/11/21 18:29:21;;;;;;;5.60;4.05;;;;;;;3.83;94.55;95751.03;5202407;56;20583;-72
2021/11/21 18:34:23;;;;;;;4.63;2.72;;;;;;;4.17;93.48;95748.50;5206819;56;20318;-72
2021/11/21 18:39:26;;;;;;;3.63;2.67;;;;;;;4.24;93.16;95748.31;5204627;56;20131;-71
2021/11/21 18:44:28;;;;;;;4.10;2.83;;;;;;;4.24;93.13;95757.28;5225427;56;20122;-72
2021/11/21 18:49:31;;;;;;;3.40;2.90;;;;;;;4.29;92.85;95751.28;5219061;56;20136;-72
2021/11/21 18:54:33;;;;;;;6.93;3.35;;;;;;;4.35;92.69;95754.22;5217391;56;20149;-72
2021/11/21 18:59:39;;;;;;;4.95;3.15;;;;;;;4.23;92.92;95763.94;5212155;56;20136;-72
2021/11/21 19:04:42;;;;;;;6.18;3.40;;;;;;;4.30;93.22;95771.16;5206077;56;20609;-72
2021/11/21 19:09:47;;;;;;;5.10;2.72;;;;;;;4.32;93.62;95766.03;5211217;56;20205;-72
2021/11/21 19:14:51;;;;;;;6.35;3.38;;;;;;;4.38;93.37;95777.97;5208456;56;20236;-72
2021/11/21 19:19:53;;;;;;;4.80;3.08;;;;;;;4.46;93.48;95771.09;5202945;56;20224;-73
2021/11/21 19:24:57;;;;;;;6.50;3.92;;;;;;;4.39;94.16;95767.81;5209966;56;20114;-72
2021/11/21 19:29:59;;;;;;;6.32;3.80;;;;;;;4.44;94.38;95778.19;5225237;56;20116;-73
2021/11/21 19:35:03;;;;;;;7.63;4.28;;;;;;;4.14;95.04;95793.09;5230938;56;20134;-72
2021/11/21 19:40:07;;;;;;;8.25;4.28;;;;;;;4.19;95.58;95795.31;5239818;56;20688;-72
2021/11/21 19:45:10;;;;;;;4.65;3.60;;;;;;;4.21;94.96;95815.56;5239818;56;20219;-72
2021/11/21 19:50:13;;;;;;;7.90;4.50;;;;;;;4.24;94.91;95817.44;5216359;56;20261;-72
2021/11/21 19:55:16;;;;;;;7.45;4.40;;;;;;;4.30;95.01;95817.66;5214692;56;20675;-72
2021/11/21 20:00:22;;;;;;;5.57;3.58;;;;;;;4.47;94.36;95821.88;5211210;56;20181;-72
2021/11/21 20:05:26;;;;;;;7.32;4.57;;;;;;;4.04;96.29;95825.03;5211225;56;20114;-73
2021/11/21 20:10:38;;;;;;;6.70;4.38;;;;;;;3.91;96.64;95815.97;5209692;56;20115;-73
2021/11/21 20:15:41;;;;;;;9.82;5.22;;;;;;;3.83;97.42;95816.59;5208345;56;20660;-73
2021/11/21 20:20:43;;;;;;;8.57;5.20;;;;;;;4.01;96.29;95812.22;5202630;56;20119;-73
2021/11/21 20:25:46;;;;;;;9.75;4.88;;;;;;;4.14;95.89;95810.28;5202109;56;20127;-74
2021/11/21 20:30:52;;;;;;;7.68;4.97;;;;;;;4.30;94.98;95812.19;5213261;56;20117;-72
2021/11/21 20:35:55;;;;;;;7.97;4.55;;;;;;;4.21;95.15;95823.75;5216859;56;20122;-72
2021/11/21 20:40:58;;;;;;;6.05;4.25;;;;;;;4.35;94.44;95817.91;5221232;56;20222;-73
2021/11/21 20:46:01;;;;;;;7.97;4.18;;;;;;;4.43;94.53;95825.91;5220521;56;20135;-72
2021/11/21 20:51:03;;;;;;;7.88;4.93;;;;;;;4.18;94.46;95819.16;5220175;56;20206;-73
2021/11/21 20:56:07;;;;;;;9.75;4.50;;;;;;;4.23;94.82;95818.63;5220532;56;20118;-73
2021/11/21 21:01:10;;;;;;;7.88;4.10;;;;;;;4.25;94.55;95829.91;5219949;56;20140;-71
2021/11/21 21:06:19;;;;;;;7.88;4.60;;;;;;;4.11;95.11;95824.84;5218741;56;20652;-72
2021/11/21 21:11:22;;;;;;;9.90;5.03;;;;;;;4.39;94.49;95815.06;5220723;56;20140;-71
2021/11/21 21:16:25;;;;;;;7.32;4.68;;;;;;;4.36;94.09;95822.16;5211449;56;21046;-72
2021/11/21 21:21:28;;;;;;;7.32;4.22;;;;;;;4.39;94.21;95828.72;5221270;56;20113;-72
2021/11/21 21:26:32;;;;;;;8.90;4.30;;;;;;;4.49;94.47;95832.38;5222013;56;20138;-75
2021/11/21 21:31:35;;;;;;;12.15;4.25;;;;;;;4.52;94.14;95845.19;5210981;56;20294;-74
2021/11/21 21:36:38;;;;;;;7.00;4.18;;;;;;;4.55;93.99;95836.09;5218886;56;20135;-74
2021/11/21 21:41:41;;;;;;;10.98;5.05;;;;;;;4.48;93.97;95836.31;5220294;56;20132;-75
2021/11/21 21:46:45;;;;;;;9.18;4.55;;;;;;;4.46;95.06;95835.97;5219633;56;20697;-75
2021/11/21 21:52:08;;;;;;;5.80;3.67;;;;;;;4.52;94.62;95845.97;5225332;56;20586;-75
2021/11/21 21:57:10;;;;;;;8.18;4.85;;;;;;;4.44;94.71;95839.16;5210463;56;20790;-75
2021/11/21 22:02:13;;;;;;;7.63;4.40;;;;;;;4.33;95.02;95838.69;5214345;56;20137;-75
2021/11/21 22:07:16;;;;;;;10.60;5.15;;;;;;;4.12;96.72;95831.81;5219096;56;20572;-74
2021/11/21 22:12:18;;;;;;;8.23;5.68;;;;;;;4.06;97.36;95830.81;5215106;56;20234;-75
2021/11/21 22:17:20;;;;;;;10.07;5.05;;;;;;;4.04;98.28;95822.28;5210618;56;20144;-73
2021/11/21 22:22:25;;;;;;;8.07;4.38;;;;;;;4.04;99.42;95830.50;5211666;56;20211;-74
2021/11/21 22:27:27;;;;;;;8.27;4.10;;;;;;;3.99;99.88;95822.03;5212848;56;20668;-75
2021/11/21 22:32:30;;;;;;;7.13;3.60;;;;;;;4.27;99.01;95830.22;5212380;56;20175;-74
2021/11/21 22:37:32;;;;;;;7.57;4.47;;;;;;;4.31;98.82;95825.44;5204506;56;20600;-74
2021/11/21 22:42:36;;;;;;;11.43;6.10;;;;;;;4.25;97.58;95821.69;5220142;56;20600;-74
2021/11/21 22:47:38;;;;;;;9.43;4.43;;;;;;;4.26;97.97;95828.72;5220112;56;20596;-74
2021/11/21 22:52:42;;;;;;;7.05;3.67;;;;;;;4.33;98.51;95839.44;5220465;56;20122;-75
2021/11/21 22:57:46;;;;;;;8.57;4.40;;;;;;;4.36;98.90;95854.97;5220296;56;20631;-74
2021/11/21 23:02:49;;;;;;;8.52;5.20;;;;;;;4.43;98.68;95845.84;5222174;56;20196;-76
2021/11/21 23:07:52;;;;;;;11.15;5.43;;;;;;;4.45;98.91;95840.69;5220817;56;20672;-75
2021/11/21 23:12:54;;;;;;;6.22;4.05;;;;;;;4.18;99.49;95849.22;5215226;56;20657;-75
2021/11/21 23:17:57;;;;;;;13.63;5.72;;;;;;;4.13;100.00;95852.50;5202227;56;20135;-75
2021/11/21 23:22:59;;;;;;;12.52;6.80;;;;;;;4.07;100.00;95865.16;5212227;56;20109;-75
2021/11/21 23:28:03;;;;;;;12.48;6.57;;;;;;;4.05;100.00;95859.34;5207597;56;20688;-75
2021/11/21 23:33:05;;;;;;;9.63;4.63;;;;;;;4.14;100.00;95870.44;5221951;56;20223;-75
2021/11/21 23:38:08;;;;;;;14.10;5.22;;;;;;;4.26;100.00;95867.00;5215000;56;20140;-75
2021/11/21 23:43:19;;;;;;;8.88;5.00;;;;;;;4.52;100.00;95872.56;5220853;56;20645;-75
2021/11/21 23:48:21;;;;;;;8.77;5.10;;;;;;;4.55;99.90;95874.41;5222440;56;20685;-75
2021/11/21 23:53:24;;;;;;;11.45;4.95;;;;;;;4.50;99.68;95872.97;5222249;56;20131;-75
2021/11/21 23:58:26;;;;;;;7.85;4.82;;;;;;;4.31;100.00;95879.38;5222514;56;20243;-75
